Time;durP1;ratioP1;P1;durP2;ratioP2;P2;SDS_P1;SDS_P2;PMS_P1;PMS_P2;Temp;Humidity;BMP_temperature;BMP_pressure;BME280_temperature;BME280_humidity;BME280_pressure;Samples;Min_cycle;Max_cycle;Signal;HPM_P1;HPM_P2
2020/12/17 00:01:35;;;;;;;10.07;6.55;;;;;;;;;;4976652;28;20050;-78
2020/12/17 00:04:02;;;;;;;8.02;5.90;;;;;;;;;;4975757;28;20046;-76
2020/12/17 00:06:39;;;;;;;10.10;6.00;;;;;;;;;;4978636;28;20112;-75
2020/12/17 00:09:06;;;;;;;11.00;6.28;;;;;;;;;;4976716;28;20510;-74
2020/12/17 00:11:33;;;;;;;10.50;5.97;;;;;;;;;;4979414;28;20050;-73
2020/12/17 00:13:59;;;;;;;9.00;6.10;;;;;;;;;;4981369;28;20054;-74
2020/12/17 00:16:26;;;;;;;8.90;5.82;;;;;;;;;;4976234;28;20051;-74
2020/12/17 00:18:53;;;;;;;12.48;6.25;;;;;;;;;;4977419;28;20054;-73
2020/12/17 00:21:22;;;;;;;13.88;6.20;;;;;;;;;;4976493;28;20046;-73
2020/12/17 00:23:51;;;;;;;9.45;5.35;;;;;;;;;;4979006;28;20508;-73
2020/12/17 00:26:17;;;;;;;8.98;5.95;;;;;;;;;;4982742;28;20061;-72
2020/12/17 00:28:43;;;;;;;8.13;5.32;;;;;;;;;;4979352;28;20062;-73
2020/12/17 00:31:10;;;;;;;11.00;5.78;;;;;;;;;;4983290;28;20050;-75
2020/12/17 00:33:36;;;;;;;9.48;5.38;;;;;;;;;;4982630;28;20046;-74
2020/12/17 00:36:02;;;;;;;9.15;5.80;;;;;;;;;;4982031;28;20046;-75
2020/12/17 00:38:28;;;;;;;8.40;5.32;;;;;;;;;;4983889;28;20058;-75
2020/12/17 00:40:54;;;;;;;9.05;5.05;;;;;;;;;;4977466;28;20092;-75
2020/12/17 00:43:20;;;;;;;9.93;5.38;;;;;;;;;;4980205;28;20051;-74
2020/12/17 00:45:47;;;;;;;9.05;4.75;;;;;;;;;;4982646;28;20427;-72
2020/12/17 00:48:22;;;;;;;9.20;5.68;;;;;;;;;;4979485;28;20507;-73
2020/12/17 00:50:48;;;;;;;9.05;6.07;;;;;;;;;;4982053;28;20050;-73
2020/12/17 00:53:14;;;;;;;10.82;6.75;;;;;;;;;;4980776;28;20054;-74
2020/12/17 00:55:41;;;;;;;7.75;4.78;;;;;;;;;;4974090;28;20043;-73
2020/12/17 00:58:07;;;;;;;11.45;6.03;;;;;;;;;;4980912;28;20467;-75
2020/12/17 01:00:33;;;;;;;8.73;5.53;;;;;;;;;;4978366;28;20047;-76
2020/12/17 01:03:01;;;;;;;7.25;5.07;;;;;;;;;;4975603;28;20051;-74
2020/12/17 01:05:27;;;;;;;9.98;5.40;;;;;;;;;;4972827;28;20050;-74
2020/12/17 01:07:53;;;;;;;7.43;4.90;;;;;;;;;;4977333;28;20042;-74
2020/12/17 01:10:20;;;;;;;19.38;5.55;;;;;;;;;;4981983;28;20065;-75
2020/12/17 01:12:46;;;;;;;7.20;4.78;;;;;;;;;;4981592;28;20186;-76
2020/12/17 01:15:12;;;;;;;10.60;5.20;;;;;;;;;;4977418;28;20070;-75
2020/12/17 01:17:38;;;;;;;9.63;4.63;;;;;;;;;;4980605;28;20072;-76
2020/12/17 01:20:04;;;;;;;11.98;5.65;;;;;;;;;;4977258;28;20069;-75
2020/12/17 01:22:31;;;;;;;7.07;4.70;;;;;;;;;;4974020;28;20444;-75
2020/12/17 01:24:57;;;;;;;9.52;5.10;;;;;;;;;;4973694;28;20061;-75
2020/12/17 01:27:23;;;;;;;8.45;5.00;;;;;;;;;;4977843;28;20053;-73
2020/12/17 01:29:49;;;;;;;10.05;4.75;;;;;;;;;;4979007;28;20057;-74
2020/12/17 01:32:16;;;;;;;11.10;5.28;;;;;;;;;;4979819;28;20046;-74
2020/12/17 01:34:42;;;;;;;6.70;4.38;;;;;;;;;;4982499;28;20038;-75
2020/12/17 01:37:24;;;;;;;10.13;4.68;;;;;;;;;;4981272;28;20047;-75
2020/12/17 01:39:50;;;;;;;7.13;4.43;;;;;;;;;;4980928;28;20042;-76
2020/12/17 01:42:17;;;;;;;8.25;4.45;;;;;;;;;;4984619;28;20153;-74
2020/12/17 01:44:46;;;;;;;9.10;5.43;;;;;;;;;;4976146;28;20046;-76
2020/12/17 01:47:12;;;;;;;6.45;4.50;;;;;;;;;;4979317;28;20555;-76
2020/12/17 01:49:39;;;;;;;8.20;5.03;;;;;;;;;;4976532;28;20051;-76
2020/12/17 01:52:05;;;;;;;12.23;5.18;;;;;;;;;;4977476;28;20043;-77
2020/12/17 01:54:31;;;;;;;8.77;4.95;;;;;;;;;;4978123;28;20381;-76
2020/12/17 01:57:04;;;;;;;8.02;4.07;;;;;;;;;;4978717;28;20057;-76
2020/12/17 01:59:36;;;;;;;11.88;4.03;;;;;;;;;;4981971;28;20047;-76
2020/12/17 02:02:02;;;;;;;6.57;4.32;;;;;;;;;;4978246;28;20759;-75
2020/12/17 02:04:29;;;;;;;8.18;4.90;;;;;;;;;;4975636;28;20050;-75
2020/12/17 02:06:55;;;;;;;8.23;4.32;;;;;;;;;;4979467;28;20393;-76
2020/12/17 02:09:21;;;;;;;7.55;4.10;;;;;;;;;;4977500;28;20047;-75
2020/12/17 02:11:51;;;;;;;5.90;4.35;;;;;;;;;;4976106;28;20401;-75
2020/12/17 02:14:18;;;;;;;7.00;4.68;;;;;;;;;;4979383;28;20054;-75
2020/12/17 02:16:44;;;;;;;7.72;4.25;;;;;;;;;;4979318;28;20053;-77
2020/12/17 02:19:11;;;;;;;7.13;4.70;;;;;;;;;;4981525;28;20455;-74
2020/12/17 02:21:37;;;;;;;6.53;4.53;;;;;;;;;;4976895;28;20047;-74
2020/12/17 02:24:03;;;;;;;7.15;4.30;;;;;;;;;;4975404;28;20104;-74
2020/12/17 02:26:30;;;;;;;8.07;4.40;;;;;;;;;;4977718;28;20076;-74
2020/12/17 02:28:56;;;;;;;5.47;3.72;;;;;;;;;;4980745;28;20055;-74
2020/12/17 02:31:24;;;;;;;8.38;4.82;;;;;;;;;;4974643;28;20405;-74
2020/12/17 02:33:50;;;;;;;7.93;4.68;;;;;;;;;;4981886;28;20057;-75
2020/12/17 02:36:17;;;;;;;7.10;4.07;;;;;;;;;;4983438;28;20054;-74
2020/12/17 02:38:43;;;;;;;5.68;4.28;;;;;;;;;;4975778;28;20559;-77
2020/12/17 02:41:10;;;;;;;9.02;3.67;;;;;;;;;;4977223;28;20042;-77
2020/12/17 02:43:36;;;;;;;7.35;4.03;;;;;;;;;;4979319;28;20465;-76
2020/12/17 02:46:02;;;;;;;7.30;4.18;;;;;;;;;;4974040;28;20051;-75
2020/12/17 02:48:29;;;;;;;7.97;4.47;;;;;;;;;;4975988;28;20047;-75
2020/12/17 02:50:55;;;;;;;7.03;4.47;;;;;;;;;;4984237;28;20054;-74
2020/12/17 02:53:21;;;;;;;6.10;3.78;;;;;;;;;;4979443;28;20070;-73
2020/12/17 02:55:47;;;;;;;6.20;3.90;;;;;;;;;;4980656;28;20039;-74
2020/12/17 02:58:14;;;;;;;6.53;4.07;;;;;;;;;;4978957;28;20422;-75
2020/12/17 03:00:41;;;;;;;6.85;4.22;;;;;;;;;;4983531;28;20051;-75
2020/12/17 03:03:07;;;;;;;6.03;3.85;;;;;;;;;;4981224;28;20057;-74
2020/12/17 03:05:34;;;;;;;5.82;3.85;;;;;;;;;;4979553;28;20054;-74
2020/12/17 03:08:14;;;;;;;6.20;3.83;;;;;;;;;;4983228;28;20489;-74
2020/12/17 03:10:40;;;;;;;7.22;3.70;;;;;;;;;;4979862;28;20051;-76
2020/12/17 03:13:07;;;;;;;6.82;4.10;;;;;;;;;;4982752;28;20514;-75
2020/12/17 03:15:33;;;;;;;6.72;4.22;;;;;;;;;;4980047;28;20046;-76
2020/12/17 03:17:59;;;;;;;7.75;4.38;;;;;;;;;;4983028;28;20508;-75
2020/12/17 03:20:25;;;;;;;6.65;3.97;;;;;;;;;;4980542;28;20085;-77
2020/12/17 03:22:53;;;;;;;6.10;3.80;;;;;;;;;;4977091;28;20062;-74
2020/12/17 03:25:19;;;;;;;5.03;3.47;;;;;;;;;;4980801;28;20051;-75
2020/12/17 03:27:48;;;;;;;5.63;3.83;;;;;;;;;;4976956;28;20426;-74
2020/12/17 03:30:15;;;;;;;7.20;4.30;;;;;;;;;;4981046;28;20105;-75
2020/12/17 03:32:41;;;;;;;6.43;4.07;;;;;;;;;;4979710;28;20053;-74
2020/12/17 03:35:08;;;;;;;7.30;3.72;;;;;;;;;;4986294;28;20154;-76
2020/12/17 03:37:34;;;;;;;5.28;3.30;;;;;;;;;;4981659;28;20067;-76
2020/12/17 03:40:00;;;;;;;5.43;3.75;;;;;;;;;;4979296;28;20058;-77
2020/12/17 03:42:26;;;;;;;5.28;3.65;;;;;;;;;;4981256;28;20098;-77
2020/12/17 03:44:54;;;;;;;6.60;3.60;;;;;;;;;;4981978;28;20123;-77
2020/12/17 03:47:21;;;;;;;5.82;3.97;;;;;;;;;;4977689;28;20052;-77
2020/12/17 03:49:47;;;;;;;5.68;3.72;;;;;;;;;;4977775;28;20104;-77
2020/12/17 03:52:14;;;;;;;7.97;3.97;;;;;;;;;;4976111;28;20047;-77
2020/12/17 03:54:40;;;;;;;6.00;3.58;;;;;;;;;;4978544;28;20415;-77
2020/12/17 03:57:07;;;;;;;5.90;4.05;;;;;;;;;;4975155;28;20046;-77
2020/12/17 03:59:33;;;;;;;5.40;3.63;;;;;;;;;;5000170;28;20042;-77
2020/12/17 04:01:59;;;;;;;6.85;3.90;;;;;;;;;;4978881;28;20399;-77
2020/12/17 04:04:25;;;;;;;4.60;3.35;;;;;;;;;;4976295;28;20108;-77
2020/12/17 04:06:51;;;;;;;6.25;3.60;;;;;;;;;;4979517;28;20059;-76
2020/12/17 04:09:20;;;;;;;6.88;3.75;;;;;;;;;;4976544;28;20066;-75
2020/12/17 04:11:46;;;;;;;6.32;4.07;;;;;;;;;;4977120;28;20151;-75
2020/12/17 04:14:13;;;;;;;5.95;3.88;;;;;;;;;;4981679;28;20053;-76
2020/12/17 04:16:39;;;;;;;5.65;3.78;;;;;;;;;;4992995;28;20057;-76
2020/12/17 04:19:05;;;;;;;7.18;3.65;;;;;;;;;;4979697;28;20125;-76
2020/12/17 04:21:32;;;;;;;6.03;3.70;;;;;;;;;;4982682;28;20046;-75
2020/12/17 04:24:00;;;;;;;8.55;4.40;;;;;;;;;;4980881;28;20049;-75
2020/12/17 04:26:27;;;;;;;6.78;4.65;;;;;;;;;;4980150;28;20054;-76
2020/12/17 04:28:53;;;;;;;6.18;3.95;;;;;;;;;;4976100;28;20047;-76
2020/12/17 04:31:19;;;;;;;6.13;3.70;;;;;;;;;;4977207;28;20067;-76
2020/12/17 04:33:45;;;;;;;5.28;3.22;;;;;;;;;;4979125;28;20051;-76
2020/12/17 04:36:11;;;;;;;4.80;3.90;;;;;;;;;;4977294;28;20051;-76
2020/12/17 04:38:37;;;;;;;7.43;4.30;;;;;;;;;;4978955;28;20057;-76
2020/12/17 04:41:04;;;;;;;6.03;4.05;;;;;;;;;;4979074;28;20047;-75
2020/12/17 04:43:30;;;;;;;5.53;3.78;;;;;;;;;;4976563;28;20106;-77
2020/12/17 04:46:03;;;;;;;5.05;3.58;;;;;;;;;;4982409;28;20073;-76
2020/12/17 04:48:31;;;;;;;5.85;3.85;;;;;;;;;;4973951;28;20047;-75
2020/12/17 04:50:58;;;;;;;6.50;4.22;;;;;;;;;;4978888;28;20054;-75
2020/12/17 04:53:24;;;;;;;4.72;3.25;;;;;;;;;;4980346;28;20485;-75
2020/12/17 04:55:51;;;;;;;5.88;3.72;;;;;;;;;;4974255;28;20081;-75
2020/12/17 04:58:19;;;;;;;5.70;3.67;;;;;;;;;;4976674;28;20051;-76
2020/12/17 05:00:50;;;;;;;6.00;3.97;;;;;;;;;;4975558;28;20444;-74
2020/12/17 05:03:17;;;;;;;5.55;3.53;;;;;;;;;;4976714;28;20046;-74
2020/12/17 05:05:43;;;;;;;5.28;3.63;;;;;;;;;;4975371;28;20058;-73
2020/12/17 05:08:10;;;;;;;4.57;3.10;;;;;;;;;;4973849;28;20039;-74
2020/12/17 05:10:36;;;;;;;5.55;3.50;;;;;;;;;;4979015;28;20058;-75
2020/12/17 05:13:02;;;;;;;5.32;3.55;;;;;;;;;;4979214;28;20088;-75
2020/12/17 05:15:28;;;;;;;7.93;3.05;;;;;;;;;;4981718;28;20137;-75
2020/12/17 05:17:54;;;;;;;5.63;3.25;;;;;;;;;;4979120;28;20054;-75
2020/12/17 05:20:20;;;;;;;4.90;3.45;;;;;;;;;;4977972;28;20115;-75
2020/12/17 05:22:47;;;;;;;4.47;2.97;;;;;;;;;;4983661;28;20518;-75
2020/12/17 05:25:17;;;;;;;5.18;3.33;;;;;;;;;;4982509;28;20492;-77
2020/12/17 05:27:43;;;;;;;5.93;3.20;;;;;;;;;;4979378;28;20050;-78
2020/12/17 05:30:10;;;;;;;5.70;3.42;;;;;;;;;;4980724;28;20051;-78
2020/12/17 05:32:36;;;;;;;4.13;2.95;;;;;;;;;;4975623;28;20129;-77
2020/12/17 05:35:03;;;;;;;6.40;4.35;;;;;;;;;;4984752;28;20046;-77
2020/12/17 05:37:30;;;;;;;6.10;3.67;;;;;;;;;;4980433;28;20050;-77
2020/12/17 05:40:03;;;;;;;5.30;3.25;;;;;;;;;;4983687;28;20042;-78
2020/12/17 05:42:29;;;;;;;4.28;3.00;;;;;;;;;;4978792;28;20056;-76
2020/12/17 05:44:55;;;;;;;4.85;3.20;;;;;;;;;;4977929;28;20514;-75
2020/12/17 05:47:21;;;;;;;4.32;3.13;;;;;;;;;;4971870;28;20077;-75
2020/12/17 05:49:47;;;;;;;5.03;3.45;;;;;;;;;;4978695;28;20073;-74
2020/12/17 05:52:15;;;;;;;6.72;3.25;;;;;;;;;;4978020;28;20057;-74
2020/12/17 05:54:50;;;;;;;5.10;3.10;;;;;;;;;;4977621;28;20043;-74
2020/12/17 05:57:16;;;;;;;6.95;3.70;;;;;;;;;;4982630;28;20053;-73
2020/12/17 05:59:53;;;;;;;5.53;3.15;;;;;;;;;;4980087;28;20054;-73
2020/12/17 06:02:19;;;;;;;4.32;3.05;;;;;;;;;;4974074;28;20057;-74
2020/12/17 06:04:59;;;;;;;4.75;2.92;;;;;;;;;;4979453;28;20534;-73
2020/12/17 06:07:30;;;;;;;6.70;3.47;;;;;;;;;;4972576;28;20045;-73
2020/12/17 06:10:19;;;;;;;3.95;2.67;;;;;;;;;;4977468;28;20061;-74
2020/12/17 06:12:46;;;;;;;5.05;3.30;;;;;;;;;;4975821;28;20492;-73
2020/12/17 06:15:20;;;;;;;4.68;3.28;;;;;;;;;;4978926;28;20051;-74
2020/12/17 06:17:54;;;;;;;3.95;2.72;;;;;;;;;;4982028;28;20057;-74
2020/12/17 06:20:21;;;;;;;4.53;3.22;;;;;;;;;;4980347;28;20053;-75
2020/12/17 06:22:51;;;;;;;5.28;3.33;;;;;;;;;;4979708;28;20058;-76
2020/12/17 06:25:18;;;;;;;4.55;3.10;;;;;;;;;;4985403;28;20057;-73
2020/12/17 06:27:45;;;;;;;4.38;3.00;;;;;;;;;;4978786;28;20065;-73
2020/12/17 06:30:14;;;;;;;4.68;3.22;;;;;;;;;;4982116;28;20137;-74
2020/12/17 06:32:40;;;;;;;4.40;2.90;;;;;;;;;;4977171;28;20054;-72
2020/12/17 06:35:12;;;;;;;5.00;2.63;;;;;;;;;;4985883;28;20455;-71
2020/12/17 06:37:38;;;;;;;4.03;2.88;;;;;;;;;;4982610;28;20054;-74
2020/12/17 06:40:04;;;;;;;4.57;3.05;;;;;;;;;;4979433;28;20053;-71
2020/12/17 06:42:38;;;;;;;4.75;2.95;;;;;;;;;;4981936;28;20069;-72
2020/12/17 06:45:22;;;;;;;5.47;3.15;;;;;;;;;;4994741;28;20419;-71
2020/12/17 06:47:48;;;;;;;4.88;2.60;;;;;;;;;;4977492;28;20055;-72
2020/12/17 06:50:25;;;;;;;4.65;3.05;;;;;;;;;;4999860;28;20050;-71
2020/12/17 06:53:03;;;;;;;4.85;3.50;;;;;;;;;;4982843;28;20416;-72
2020/12/17 06:55:43;;;;;;;4.45;3.15;;;;;;;;;;4980935;28;20404;-73
2020/12/17 06:58:23;;;;;;;4.10;2.80;;;;;;;;;;4998847;28;20039;-71
2020/12/17 07:00:49;;;;;;;;;;;;;;;;;;4979003;28;20051;-72
2020/12/17 07:03:38;;;;;;;6.85;3.60;;;;;;;;;;4978386;28;19940;-77
2020/12/17 07:06:11;;;;;;;5.78;3.95;;;;;;;;;;4976019;28;20051;-74
2020/12/17 07:08:37;;;;;;;5.32;3.65;;;;;;;;;;4983135;28;20057;-73
2020/12/17 07:11:03;;;;;;;7.00;3.42;;;;;;;;;;4982864;28;20054;-75
2020/12/17 07:13:39;;;;;;;4.68;3.70;;;;;;;;;;4982931;28;20517;-74
2020/12/17 07:16:17;;;;;;;6.65;3.60;;;;;;;;;;4980552;28;20417;-74
2020/12/17 07:18:43;;;;;;;6.75;4.18;;;;;;;;;;4978721;28;20105;-77
2020/12/17 07:21:09;;;;;;;5.60;3.50;;;;;;;;;;4981951;28;20503;-76
2020/12/17 07:23:36;;;;;;;5.75;3.53;;;;;;;;;;4984152;28;20050;-76
2020/12/17 07:26:12;;;;;;;6.38;3.90;;;;;;;;;;4982497;28;20051;-75
2020/12/17 07:28:38;;;;;;;5.20;3.70;;;;;;;;;;4979521;28;20242;-76
2020/12/17 07:31:07;;;;;;;6.53;3.65;;;;;;;;;;4975625;28;20407;-76
2020/12/17 07:33:33;;;;;;;6.95;3.42;;;;;;;;;;4974955;28;20050;-76
2020/12/17 07:35:59;;;;;;;6.07;3.40;;;;;;;;;;4979536;28;20047;-75
2020/12/17 07:38:26;;;;;;;5.88;3.60;;;;;;;;;;4971889;28;20057;-76
2020/12/17 07:41:26;;;;;;;6.78;3.55;;;;;;;;;;4982293;28;20050;-76
2020/12/17 07:43:53;;;;;;;4.95;3.20;;;;;;;;;;4975934;28;20053;-76
2020/12/17 07:46:38;;;;;;;5.05;3.42;;;;;;;;;;4978975;28;20571;-76
2020/12/17 07:49:24;;;;;;;4.32;2.97;;;;;;;;;;4979018;28;20519;-75
2020/12/17 07:51:50;;;;;;;6.43;3.17;;;;;;;;;;4979987;28;20046;-76
2020/12/17 07:54:22;;;;;;;3.92;2.70;;;;;;;;;;4976184;28;20059;-76
2020/12/17 07:56:49;;;;;;;4.88;3.10;;;;;;;;;;4980487;28;20833;-74
2020/12/17 07:59:15;;;;;;;5.45;3.58;;;;;;;;;;4975476;28;20054;-73
2020/12/17 08:01:41;;;;;;;7.10;2.97;;;;;;;;;;4978567;28;20138;-74
2020/12/17 08:04:10;;;;;;;7.80;2.58;;;;;;;;;;4975894;28;20480;-76
2020/12/17 08:06:36;;;;;;;8.73;3.28;;;;;;;;;;4981690;28;20056;-75
2020/12/17 08:09:04;;;;;;;6.47;2.97;;;;;;;;;;4980838;28;20047;-74
2020/12/17 08:11:54;;;;;;;5.05;2.95;;;;;;;;;;4979768;28;20415;-74
2020/12/17 08:14:21;;;;;;;3.95;2.83;;;;;;;;;;4981042;28;20745;-74
2020/12/17 08:16:47;;;;;;;5.90;3.08;;;;;;;;;;4981013;28;20053;-74
2020/12/17 08:19:14;;;;;;;5.88;2.97;;;;;;;;;;4981134;28;20043;-77
2020/12/17 08:21:42;;;;;;;4.38;2.88;;;;;;;;;;4982413;28;20503;-77
2020/12/17 08:24:08;;;;;;;4.35;2.65;;;;;;;;;;4978691;28;20404;-76
2020/12/17 08:26:34;;;;;;;4.32;2.55;;;;;;;;;;4978833;28;20055;-77
2020/12/17 08:29:01;;;;;;;6.00;2.35;;;;;;;;;;4979733;28;20461;-77
2020/12/17 08:31:28;;;;;;;6.78;2.42;;;;;;;;;;4980097;28;20051;-76
2020/12/17 08:34:09;;;;;;;4.88;2.65;;;;;;;;;;4976097;28;20053;-74
2020/12/17 08:36:37;;;;;;;4.18;2.60;;;;;;;;;;4980322;28;20050;-79
2020/12/17 08:39:06;;;;;;;5.53;3.00;;;;;;;;;;4974840;28;20138;-79
2020/12/17 08:41:52;;;;;;;5.03;2.65;;;;;;;;;;4976611;28;20398;-79
2020/12/17 08:44:22;;;;;;;5.95;2.50;;;;;;;;;;4973540;28;20054;-79
2020/12/17 08:46:53;;;;;;;3.80;2.90;;;;;;;;;;4974275;28;20501;-80
2020/12/17 08:49:33;;;;;;;3.90;2.60;;;;;;;;;;4983569;28;20061;-80
2020/12/17 08:52:00;;;;;;;5.50;2.53;;;;;;;;;;4981210;28;20053;-80
2020/12/17 08:54:27;;;;;;;4.10;2.63;;;;;;;;;;4982470;28;20053;-80
2020/12/17 08:56:57;;;;;;;3.63;2.63;;;;;;;;;;4978811;28;20122;-79
2020/12/17 08:59:24;;;;;;;4.93;2.20;;;;;;;;;;4977956;28;20050;-78
2020/12/17 09:01:51;;;;;;;5.32;2.50;;;;;;;;;;4979380;28;20100;-74
2020/12/17 09:04:19;;;;;;;6.13;2.58;;;;;;;;;;4975116;28;20534;-75
2020/12/17 09:06:52;;;;;;;4.68;2.88;;;;;;;;;;4982656;28;20058;-75
2020/12/17 09:09:29;;;;;;;5.32;2.60;;;;;;;;;;4980618;28;20054;-75
2020/12/17 09:12:03;;;;;;;4.88;3.15;;;;;;;;;;4980887;28;20510;-74
2020/12/17 09:14:30;;;;;;;4.50;3.20;;;;;;;;;;4975069;28;20043;-76
2020/12/17 09:17:07;;;;;;;7.18;3.20;;;;;;;;;;4976898;28;20082;-74
2020/12/17 09:19:34;;;;;;;6.47;3.35;;;;;;;;;;4980597;28;20047;-76
2020/12/17 09:22:00;;;;;;;4.47;2.85;;;;;;;;;;4978883;28;20046;-75
2020/12/17 09:24:28;;;;;;;6.13;3.40;;;;;;;;;;4973972;28;20047;-75
2020/12/17 09:27:21;;;;;;;5.03;3.25;;;;;;;;;;4977856;28;20054;-75
2020/12/17 09:30:00;;;;;;;8.52;3.58;;;;;;;;;;4976261;28;20042;-76
2020/12/17 09:32:28;;;;;;;5.80;3.17;;;;;;;;;;4976049;28;20042;-75
2020/12/17 09:35:01;;;;;;;5.38;3.28;;;;;;;;;;4977871;28;20042;-74
2020/12/17 09:37:27;;;;;;;5.15;2.85;;;;;;;;;;4981303;28;20053;-75
2020/12/17 09:39:53;;;;;;;5.82;3.75;;;;;;;;;;4982169;28;20563;-75
2020/12/17 09:42:23;;;;;;;;;;;;;;;;;;4973081;28;20062;-75
2020/12/17 09:44:52;;;;;;;4.88;2.97;;;;;;;;;;4976246;28;19933;-76
2020/12/17 09:47:32;;;;;;;5.82;3.10;;;;;;;;;;4977023;28;20129;-75
2020/12/17 09:50:27;;;;;;;4.00;2.90;;;;;;;;;;4974776;28;20483;-75
2020/12/17 09:52:54;;;;;;;8.02;3.50;;;;;;;;;;4966786;28;20702;-74
2020/12/17 09:55:20;;;;;;;4.82;2.97;;;;;;;;;;4986503;28;20050;-75
2020/12/17 09:57:47;;;;;;;6.53;3.17;;;;;;;;;;4984527;28;20093;-74
2020/12/17 10:00:14;;;;;;;5.50;3.00;;;;;;;;;;4975994;28;20104;-76
2020/12/17 10:02:40;;;;;;;7.03;4.18;;;;;;;;;;4977904;28;20393;-75
2020/12/17 10:05:07;;;;;;;5.57;3.58;;;;;;;;;;4981007;28;20060;-75
2020/12/17 10:07:33;;;;;;;5.40;3.30;;;;;;;;;;4985170;28;20042;-75
2020/12/17 10:10:00;;;;;;;5.68;3.85;;;;;;;;;;4981462;28;20045;-76
2020/12/17 10:12:40;;;;;;;4.97;3.05;;;;;;;;;;4983658;28;20054;-75
2020/12/17 10:15:06;;;;;;;4.45;3.17;;;;;;;;;;4979427;28;20053;-75
2020/12/17 10:17:35;;;;;;;3.95;3.13;;;;;;;;;;4979567;28;20078;-74
2020/12/17 10:20:05;;;;;;;7.68;3.58;;;;;;;;;;4978139;28;20046;-76
2020/12/17 10:22:43;;;;;;;6.22;3.38;;;;;;;;;;4976059;28;20093;-73
2020/12/17 10:25:09;;;;;;;6.75;4.05;;;;;;;;;;4974745;28;20051;-73
2020/12/17 10:27:35;;;;;;;5.18;3.30;;;;;;;;;;4978138;28;20047;-74
2020/12/17 10:30:02;;;;;;;5.75;3.50;;;;;;;;;;4980190;28;20473;-74
2020/12/17 10:32:32;;;;;;;9.00;3.88;;;;;;;;;;4976478;28;20042;-74
2020/12/17 10:34:58;;;;;;;5.63;3.20;;;;;;;;;;4980044;28;20050;-74
2020/12/17 10:37:25;;;;;;;6.70;3.13;;;;;;;;;;4983621;28;20049;-75
2020/12/17 10:39:52;;;;;;;4.28;2.92;;;;;;;;;;4979558;28;20057;-74
2020/12/17 10:42:19;;;;;;;5.32;3.10;;;;;;;;;;4980355;28;20496;-75
2020/12/17 10:44:45;;;;;;;8.18;3.80;;;;;;;;;;4979020;28;20481;-74
2020/12/17 10:47:11;;;;;;;6.20;4.00;;;;;;;;;;4983113;28;20051;-74
2020/12/17 10:49:37;;;;;;;5.15;3.25;;;;;;;;;;4976544;28;20047;-75
2020/12/17 10:52:09;;;;;;;4.47;3.20;;;;;;;;;;4983848;28;20053;-79
2020/12/17 10:54:35;;;;;;;5.78;3.28;;;;;;;;;;4980232;28;20484;-77
2020/12/17 10:57:02;;;;;;;5.40;3.50;;;;;;;;;;4978546;28;20054;-76
2020/12/17 10:59:28;;;;;;;6.68;4.00;;;;;;;;;;4976036;28;20046;-77
2020/12/17 11:01:58;;;;;;;6.10;3.83;;;;;;;;;;4982288;28;20069;-72
2020/12/17 11:04:24;;;;;;;5.40;4.00;;;;;;;;;;4980997;28;20412;-74
2020/12/17 11:06:54;;;;;;;5.32;3.47;;;;;;;;;;4978719;28;20058;-74
2020/12/17 11:09:20;;;;;;;5.55;3.20;;;;;;;;;;4980634;28;20051;-73
2020/12/17 11:11:49;;;;;;;5.35;3.28;;;;;;;;;;4974205;28;20054;-73
2020/12/17 11:14:15;;;;;;;6.50;3.70;;;;;;;;;;4978991;28;20462;-78
2020/12/17 11:16:41;;;;;;;6.30;3.45;;;;;;;;;;4977494;28;20051;-76
2020/12/17 11:19:07;;;;;;;6.95;3.92;;;;;;;;;;4978197;28;20058;-78
2020/12/17 11:21:33;;;;;;;5.82;3.65;;;;;;;;;;4985496;28;20141;-79
2020/12/17 11:24:01;;;;;;;6.07;3.15;;;;;;;;;;4995485;28;20049;-79
2020/12/17 11:26:28;;;;;;;5.80;4.03;;;;;;;;;;4980985;28;20054;-79
2020/12/17 11:28:58;;;;;;;6.32;4.28;;;;;;;;;;4975568;28;20042;-78
2020/12/17 11:31:25;;;;;;;5.40;3.67;;;;;;;;;;4973838;28;20475;-78
2020/12/17 11:33:51;;;;;;;6.22;3.35;;;;;;;;;;4974853;28;20057;-78
2020/12/17 11:36:18;;;;;;;5.57;3.63;;;;;;;;;;4979241;28;20058;-78
2020/12/17 11:38:44;;;;;;;8.95;4.90;;;;;;;;;;4979265;28;20052;-78
2020/12/17 11:41:11;;;;;;;10.00;5.00;;;;;;;;;;4980280;28;20355;-79
2020/12/17 11:43:37;;;;;;;12.60;6.70;;;;;;;;;;4982699;28;20057;-78
2020/12/17 11:46:09;;;;;;;11.18;6.82;;;;;;;;;;4977219;28;20050;-78
2020/12/17 11:48:35;;;;;;;8.75;6.15;;;;;;;;;;4980771;28;20142;-79
2020/12/17 11:51:01;;;;;;;11.65;7.00;;;;;;;;;;4981051;28;20051;-78
2020/12/17 11:53:28;;;;;;;13.13;7.03;;;;;;;;;;4977376;28;20058;-78
2020/12/17 11:55:54;;;;;;;13.73;7.38;;;;;;;;;;4980796;28;20511;-78
2020/12/17 11:58:20;;;;;;;12.65;8.57;;;;;;;;;;4982455;28;20046;-79
2020/12/17 12:00:46;;;;;;;27.27;10.13;;;;;;;;;;4980615;28;20499;-79
2020/12/17 12:03:12;;;;;;;27.77;13.40;;;;;;;;;;4977213;28;20057;-76
2020/12/17 12:05:39;;;;;;;29.13;12.20;;;;;;;;;;4978621;28;20623;-78
2020/12/17 12:08:05;;;;;;;33.05;14.30;;;;;;;;;;4978625;28;20052;-78
2020/12/17 12:10:31;;;;;;;30.65;14.43;;;;;;;;;;4979563;28;20059;-79
2020/12/17 12:12:58;;;;;;;30.55;15.50;;;;;;;;;;4985082;28;20121;-79
2020/12/17 12:15:24;;;;;;;32.67;14.20;;;;;;;;;;4979258;28;20053;-76
2020/12/17 12:17:52;;;;;;;27.95;14.43;;;;;;;;;;4978168;28;20043;-78
2020/12/17 12:20:18;;;;;;;32.13;15.52;;;;;;;;;;4979334;28;20054;-79
2020/12/17 12:22:48;;;;;;;31.48;15.40;;;;;;;;;;4976721;28;20046;-79
2020/12/17 12:25:14;;;;;;;42.05;17.92;;;;;;;;;;4978181;28;20054;-79
2020/12/17 12:27:40;;;;;;;41.13;16.88;;;;;;;;;;4978087;28;20094;-78
2020/12/17 12:30:07;;;;;;;31.38;16.67;;;;;;;;;;4981633;28;20046;-79
2020/12/17 12:32:33;;;;;;;35.97;18.85;;;;;;;;;;4980250;28;20054;-78
2020/12/17 12:35:01;;;;;;;37.55;18.33;;;;;;;;;;4976006;28;20056;-78
2020/12/17 12:37:27;;;;;;;34.55;16.92;;;;;;;;;;4981353;28;20046;-78
2020/12/17 12:39:55;;;;;;;38.63;17.02;;;;;;;;;;4981552;28;20065;-77
2020/12/17 12:42:21;;;;;;;45.83;17.75;;;;;;;;;;4977979;28;20050;-77
2020/12/17 12:44:47;;;;;;;39.78;18.27;;;;;;;;;;4979975;28;20054;-78
2020/12/17 12:47:14;;;;;;;37.55;19.58;;;;;;;;;;4978696;28;20551;-78
2020/12/17 12:49:40;;;;;;;34.08;17.33;;;;;;;;;;4981742;28;20483;-74
2020/12/17 12:52:07;;;;;;;35.80;17.13;;;;;;;;;;4978083;28;20055;-76
2020/12/17 12:54:36;;;;;;;41.45;18.40;;;;;;;;;;4978625;28;20038;-75
2020/12/17 12:57:06;;;;;;;41.38;17.95;;;;;;;;;;4978195;28;20050;-75
2020/12/17 12:59:32;;;;;;;34.28;17.77;;;;;;;;;;4980173;28;20047;-76
2020/12/17 13:01:58;;;;;;;35.88;15.77;;;;;;;;;;4978782;28;20471;-76
2020/12/17 13:04:25;;;;;;;29.00;16.23;;;;;;;;;;4981472;28;20046;-76
2020/12/17 13:06:51;;;;;;;30.42;15.40;;;;;;;;;;4979348;28;20417;-75
2020/12/17 13:09:23;;;;;;;39.35;16.80;;;;;;;;;;4976073;28;20049;-76
2020/12/17 13:11:53;;;;;;;30.52;15.02;;;;;;;;;;4980293;28;20453;-74
2020/12/17 13:14:27;;;;;;;30.95;14.40;;;;;;;;;;4972782;28;20042;-74
2020/12/17 13:16:53;;;;;;;24.05;14.32;;;;;;;;;;4972499;28;20054;-74
2020/12/17 13:19:19;;;;;;;26.65;14.30;;;;;;;;;;4979788;28;20073;-76
2020/12/17 13:21:48;;;;;;;31.70;13.73;;;;;;;;;;4979737;28;20046;-76
2020/12/17 13:24:14;;;;;;;27.33;12.18;;;;;;;;;;4974859;28;20057;-76
2020/12/17 13:26:40;;;;;;;26.48;13.75;;;;;;;;;;4976060;28;20046;-75
2020/12/17 13:29:07;;;;;;;23.65;12.50;;;;;;;;;;4974105;28;20504;-75
2020/12/17 13:31:34;;;;;;;32.10;12.93;;;;;;;;;;4976271;28;20057;-75
2020/12/17 13:34:00;;;;;;;27.67;12.05;;;;;;;;;;4976515;28;20034;-75
2020/12/17 13:36:26;;;;;;;24.17;11.43;;;;;;;;;;4975543;28;20062;-73
2020/12/17 13:38:52;;;;;;;20.65;12.23;;;;;;;;;;4980253;28;20527;-76
2020/12/17 13:41:19;;;;;;;17.15;10.20;;;;;;;;;;4975674;28;20638;-75
2020/12/17 13:43:45;;;;;;;23.42;11.55;;;;;;;;;;4979251;28;20051;-77
2020/12/17 13:46:11;;;;;;;20.65;10.32;;;;;;;;;;4979484;28;20385;-77
2020/12/17 13:48:38;;;;;;;19.45;9.63;;;;;;;;;;4979658;28;20047;-77
2020/12/17 13:51:04;;;;;;;22.55;10.40;;;;;;;;;;4976796;28;20177;-77
2020/12/17 13:53:30;;;;;;;22.90;10.25;;;;;;;;;;4974380;28;20489;-75
2020/12/17 13:55:57;;;;;;;17.90;9.80;;;;;;;;;;4980019;28;20053;-77
2020/12/17 13:58:24;;;;;;;18.10;9.23;;;;;;;;;;4973278;28;20485;-76
2020/12/17 14:00:50;;;;;;;23.40;9.32;;;;;;;;;;4978225;28;20226;-76
2020/12/17 14:03:16;;;;;;;13.00;8.20;;;;;;;;;;4979917;28;20185;-77
2020/12/17 14:05:42;;;;;;;16.08;8.50;;;;;;;;;;4978405;28;20058;-77
2020/12/17 14:08:11;;;;;;;14.65;8.38;;;;;;;;;;4978317;28;20519;-77
2020/12/17 14:10:37;;;;;;;17.98;8.30;;;;;;;;;;4978638;28;20061;-76
2020/12/17 14:13:04;;;;;;;14.30;8.20;;;;;;;;;;4977509;28;20130;-76
2020/12/17 14:15:30;;;;;;;16.90;8.65;;;;;;;;;;4976941;28;20053;-77
2020/12/17 14:17:58;;;;;;;15.02;8.82;;;;;;;;;;4971731;28;20403;-76
2020/12/17 14:20:26;;;;;;;14.50;7.13;;;;;;;;;;4976886;28;20062;-76
2020/12/17 14:22:53;;;;;;;14.27;8.32;;;;;;;;;;4978356;28;20047;-76
2020/12/17 14:25:19;;;;;;;13.18;7.25;;;;;;;;;;4971159;28;20061;-76
2020/12/17 14:27:45;;;;;;;14.77;6.82;;;;;;;;;;4980254;28;20046;-76
2020/12/17 14:30:11;;;;;;;15.25;7.57;;;;;;;;;;4976702;28;20046;-77
2020/12/17 14:32:39;;;;;;;14.55;7.40;;;;;;;;;;4976734;28;20496;-76
2020/12/17 14:35:06;;;;;;;10.15;6.80;;;;;;;;;;4970933;28;20058;-76
2020/12/17 14:37:32;;;;;;;12.40;6.88;;;;;;;;;;4977247;28;20042;-75
2020/12/17 14:39:58;;;;;;;13.40;6.00;;;;;;;;;;4979199;28;20050;-75
2020/12/17 14:42:24;;;;;;;15.98;5.80;;;;;;;;;;4978320;28;20057;-76
2020/12/17 14:44:57;;;;;;;11.13;7.03;;;;;;;;;;4986576;28;20054;-75